Ogunquit, ME

8:49 PM EDT on April 26, 2017 (GMT -0400)
Footbridge Beach | | Change Station
Active Advisory: Coastal Flood Advisory Active Notice: Coastal Flood Advisory

Elev 10 ft 43.26 °N, 70.59 °W | Updated 7 seconds ago

Overcast
Overcast
50.5 °F
Feels Like 50.5 °F
N
0.0
Wind Variable Wind from NE

Today
High -- | Low -- °F
--% Chance of Precip.
Yesterday
High -- | Low -- °F
Precip. -- in
Pressure 29.88 in
Visibility 2.5 miles
Clouds Overcast 400 ft
Dew Point 48 °F
Humidity 91%
Rainfall 0.00 in
Snow Depth Not available.
5:42 AM 7:38 PM
New Moon, 0% visible
SPECI KSFM 270011Z AUTO 06007KT 2 1/2SM -RA BR OVC004 12/11 A2988 RMK AO2 P0000
Pressure 29.88 in
Visibility 2.5 miles
Clouds Overcast 400 ft
Dew Point 48 °F
Humidity 91%
Rainfall 0.00 in
Snow Depth Not available.
5:42 AM 7:38 PM
New Moon, 0% visible
SPECI KSFM 270011Z AUTO 06007KT 2 1/2SM -RA BR OVC004 12/11 A2988 RMK AO2 P0000

Get Your Daily Forecast Email!

Thanks for signing up!

Be on the lookout for a verification email in your inbox.

You'll start receiving severe weather alerts in your inbox..

×

10-Day Weather Forecast

Almanac

Astronomy

Apr. 26, 2017 Rise Set
Actual Time
Civil Twilight
Nautical Twilight
Astronomical Twilight
Moon
Length of Visible Light
Length of Day
Tomorrow will be .
, % of the Moon is Illuminated

Today's Extremes

State Highs State Lows

Community

WunderPhotos

WunderBlog® & News

Nearby

Air Quality

  Air Quality AQ Index Pollutant
Not available.

Snow Depth

Station Depth Elevation

Earthquake Activity

City Distance Mag. Time & Date
Minimum magnitude displayed is 2.5.

Coastal Water Temperatures

Place Temperature

Stations

Nearby Weather Stations

Station Location Temp. Windchill Dew Point Humidity Wind Precip. Elev Updated Type
                   

Watches & Warnings

Coastal Flood Advisory
Issued: 3:15 PM EDT Apr. 26, 2017 – National Weather Service

... Coastal flood advisory remains in effect from 10 PM this
evening to 2 am EDT Thursday...

* location... the New Hampshire seacoast and the beaches of
southwest Maine to the south of Portland.

* Coastal flooding... the combination of high astronomical tides
and an onshore wind will create a threat for splash over and
beach erosion near the time of high tide tonight.

* Timing... near the time of high tide tonight.

* Impacts... the potential exists for splash over and minor beach
erosion.

Precautionary/preparedness actions...

A coastal flood advisory indicates that onshore winds and tides
will combine to generate flooding of low areas along the shore.